TimeEDT,TemperatureF,Dew PointF,Humidity,Sea Level PressureIn,VisibilityMPH,Wind Direction,Wind SpeedMPH,Gust SpeedMPH,PrecipitationIn,Events,Conditions,WindDirDegrees,DateUTC
12:56 AM,60.1,51.1,72,30.33,10.0,SE,3.5,-,N/A,,Clear,130,2013-08-25 04:56:00
1:56 AM,59.0,51.1,75,30.32,10.0,ESE,5.8,-,N/A,,Clear,120,2013-08-25 05:56:00
2:56 AM,57.0,50.0,77,30.33,10.0,SE,3.5,-,N/A,,Clear,130,2013-08-25 06:56:00
3:56 AM,57.0,50.0,77,30.32,10.0,Calm,Calm,-,N/A,,Clear,0,2013-08-25 07:56:00
4:56 AM,57.0,50.0,77,30.36,10.0,Calm,Calm,-,N/A,,Clear,0,2013-08-25 08:56:00
5:56 AM,57.0,50.0,77,30.36,10.0,Calm,Calm,-,N/A,,Clear,0,2013-08-25 09:56:00
6:56 AM,55.0,50.0,83,30.38,10.0,East,4.6,-,N/A,,Clear,100,2013-08-25 10:56:00
7:56 AM,59.0,52.0,78,30.39,10.0,ESE,4.6,-,N/A,,Clear,110,2013-08-25 11:56:00
8:56 AM,64.0,54.0,70,30.38,10.0,Variable,3.5,-,N/A,,Clear,0,2013-08-25 12:56:00
9:56 AM,68.0,55.0,63,30.38,10.0,Variable,3.5,-,N/A,,Clear,0,2013-08-25 13:56:00
10:56 AM,71.1,57.0,61,30.37,10.0,SSW,6.9,-,N/A,,Clear,210,2013-08-25 14:56:00
11:56 AM,75.0,57.9,55,30.36,10.0,WSW,6.9,-,N/A,,Clear,250,2013-08-25 15:56:00
12:56 PM,73.9,55.9,53,30.35,10.0,WSW,5.8,-,N/A,,Mostly Cloudy,250,2013-08-25 16:56:00
1:56 PM,78.1,55.0,45,30.33,10.0,WSW,8.1,-,N/A,,Scattered Clouds,250,2013-08-25 17:56:00
2:56 PM,78.1,54.0,43,30.32,10.0,SSW,9.2,-,N/A,,Scattered Clouds,200,2013-08-25 18:56:00
3:56 PM,79.0,54.0,42,30.30,10.0,SW,8.1,-,N/A,,Clear,230,2013-08-25 19:56:00
4:56 PM,78.1,55.0,45,30.28,10.0,SW,10.4,-,N/A,,Partly Cloudy,230,2013-08-25 20:56:00
5:56 PM,77.0,55.9,48,30.28,10.0,SW,6.9,-,N/A,,Clear,230,2013-08-25 21:56:00
6:56 PM,73.9,57.0,55,30.26,10.0,SSW,5.8,-,N/A,,Clear,210,2013-08-25 22:56:00
7:56 PM,71.1,57.0,61,30.25,10.0,SSW,4.6,-,N/A,,Clear,200,2013-08-25 23:56:00
8:56 PM,69.1,55.9,63,30.25,10.0,SSW,4.6,-,N/A,,Clear,210,2013-08-26 00:56:00
9:56 PM,66.9,57.0,70,30.26,10.0,SW,4.6,-,N/A,,Clear,220,2013-08-26 01:56:00
10:56 PM,64.9,57.0,75,30.26,10.0,SW,5.8,-,N/A,,Clear,220,2013-08-26 02:56:00
11:56 PM,64.9,57.9,78,30.25,10.0,WSW,5.8,-,N/A,,Clear,240,2013-08-26 03:56:00